.
WxDataArchive / Data Records for 2013-01-27
2013-01-26 January 2013 2013-01-28

Data Records for Sunday, 27 January 2013

Time	Temp	Chill	HIndex	Humid	Dewpt	 Wind 	HiWind	WindDir	Rain 	Barom 
-----	----	-----	------	-----	-----	------	------	-------	-----	----- 
00:00	18.6	18.6	18.6	78	12.9	0	0	---	0.00	30.464 
00:05	18.6	18.6	18.6	78	12.9	0	0	---	0.00	30.464 
00:10	18.6	18.6	18.6	78	12.9	0	0	---	0.00	30.464 
00:15	18.6	18.6	18.6	79	13.2	0	0	---	0.00	30.469 
00:20	18.6	18.6	18.6	80	13.5	0	0	---	0.00	30.469 
00:25	18.8	18.8	18.8	80	13.7	0	0	---	0.00	30.469 
00:30	19.1	19.1	19.1	80	14.0	0	0	---	0.00	30.466 
00:35	19.2	19.2	19.2	80	14.1	0	0	---	0.00	30.466 
00:40	19.2	19.2	19.2	80	14.1	0	0	---	0.00	30.466 
00:45	19.2	19.2	19.2	80	14.1	0	0	---	0.00	30.469 
00:50	19.2	19.2	19.2	80	14.1	0	0	---	0.00	30.469 
00:55	19.1	19.1	19.1	80	14.0	0	0	---	0.00	30.469 
01:00	18.9	18.9	18.9	80	13.8	0	0	---	0.00	30.470 
01:05	18.9	18.9	18.9	80	13.8	0	0	---	0.00	30.470 
01:10	19.1	19.1	19.1	80	14.0	0	0	---	0.00	30.470 
01:15	19.2	19.2	19.2	80	14.1	0	1	270	0.00	30.459 
01:20	19.2	19.2	19.2	80	14.1	0	0	---	0.00	30.459 
01:25	19.4	19.4	19.4	80	14.3	0	1	270	0.00	30.459 
01:30	19.5	19.5	19.5	79	14.1	0	0	---	0.00	30.460 
01:35	19.5	19.5	19.5	79	14.1	0	0	---	0.00	30.460 
01:40	19.4	19.4	19.4	79	14.0	0	0	---	0.00	30.460 
01:45	19.1	19.1	19.1	79	13.7	0	1	270	0.00	30.453 
01:50	18.9	18.9	18.9	79	13.5	0	1	270	0.00	30.453 
01:55	18.8	18.8	18.8	79	13.4	0	0	---	0.00	30.453 
02:00	18.4	18.4	18.4	80	13.3	0	0	---	0.00	30.450 
02:05	18.3	18.3	18.3	80	13.2	0	0	---	0.00	30.450 
02:10	18.1	18.1	18.1	80	13.0	0	0	---	0.00	30.450 
02:15	17.8	17.8	17.8	80	12.7	0	1	270	0.00	30.444 
02:20	17.8	17.8	17.8	81	13.0	0	1	270	0.00	30.444 
02:25	17.8	17.8	17.8	81	13.0	0	1	270	0.00	30.444 
02:30	17.8	17.8	17.8	81	13.0	0	0	---	0.00	30.449 
02:35	17.7	17.7	17.7	81	12.9	0	0	---	0.00	30.449 
02:40	17.5	17.5	17.5	81	12.7	0	0	---	0.00	30.449 
02:45	17.3	17.3	17.3	81	12.5	0	0	---	0.00	30.457 
02:50	17.2	17.2	17.2	81	12.4	0	0	---	0.00	30.457 
02:55	16.9	16.9	16.9	81	12.1	0	1	270	0.00	30.457 
03:00	16.9	16.9	16.9	81	12.1	0	1	270	0.00	30.449 
03:05	16.9	16.9	16.9	82	12.4	0	0	---	0.00	30.449 
03:10	16.7	16.7	16.7	82	12.2	0	0	---	0.00	30.449 
03:15	16.7	16.7	16.7	82	12.2	0	1	270	0.00	30.453 
03:20	16.7	16.7	16.7	82	12.2	0	0	---	0.00	30.453 
03:25	16.5	16.5	16.5	82	12.0	0	0	---	0.00	30.453 
03:30	16.5	16.5	16.5	82	12.0	0	0	---	0.00	30.467 
03:35	16.7	16.7	16.7	83	12.5	0	0	---	0.00	30.467 
03:40	16.7	16.7	16.7	83	12.5	0	0	---	0.00	30.467 
03:45	16.9	16.9	16.9	83	12.6	0	0	---	0.00	30.460 
03:50	17.0	17.0	17.0	83	12.7	0	0	---	0.00	30.460 
03:55	17.2	17.2	17.2	84	13.2	0	0	---	0.00	30.460 
04:00	17.5	17.5	17.5	84	13.5	0	1	270	0.00	30.457 
04:05	17.8	17.8	17.8	84	13.8	0	1	270	0.00	30.457 
04:10	18.0	18.0	18.0	83	13.7	0	1	270	0.00	30.457 
04:15	18.1	18.1	18.1	83	13.8	0	0	---	0.00	30.457 
04:20	18.3	18.3	18.3	83	14.0	0	0	---	0.00	30.457 
04:25	18.6	18.6	18.6	83	14.3	0	2	270	0.00	30.457 
04:30	18.8	18.8	18.8	83	14.5	0	1	270	0.00	30.455 
04:35	19.1	19.1	19.1	82	14.5	0	1	270	0.00	30.455 
04:40	19.2	19.2	19.2	82	14.6	0	1	270	0.00	30.455 
04:45	19.4	19.4	19.4	82	14.8	0	2	270	0.00	30.460 
04:50	19.5	19.5	19.5	81	14.6	0	2	270	0.00	30.460 
04:55	19.7	19.7	19.7	81	14.8	0	2	270	0.00	30.460 
05:00	20.0	20.0	20.0	81	15.1	0	2	270	0.00	30.463 
05:05	20.2	20.2	20.2	80	15.0	0	2	270	0.00	30.463 
05:10	20.3	20.3	20.3	80	15.1	0	1	270	0.00	30.463 
05:15	20.3	20.3	20.3	80	15.1	0	1	270	0.00	30.466 
05:20	20.5	20.5	20.5	79	15.0	0	2	270	0.00	30.466 
05:25	20.5	20.5	20.5	79	15.0	0	1	270	0.00	30.466 
05:30	20.5	20.5	20.5	79	15.0	0	1	270	0.00	30.449 
05:35	20.5	20.5	20.5	79	15.0	0	2	270	0.00	30.449 
05:40	20.5	20.5	20.5	78	14.8	0	1	270	0.00	30.449 
05:45	20.5	20.5	20.5	78	14.8	0	2	270	0.00	30.461 
05:50	20.5	20.5	20.5	78	14.8	0	2	270	0.00	30.461 
05:55	20.5	20.5	20.5	78	14.8	0	3	270	0.00	30.461 
06:00	20.5	20.5	20.5	78	14.8	0	1	270	0.00	30.466 
06:05	20.5	20.5	20.5	78	14.8	0	1	270	0.00	30.466 
06:10	20.5	20.5	20.5	78	14.8	0	1	270	0.00	30.466 
06:15	20.5	20.5	20.5	77	14.5	0	1	270	0.00	30.463 
06:20	20.5	20.5	20.5	77	14.5	0	1	270	0.00	30.463 
06:25	20.3	20.3	20.3	77	14.3	0	1	270	0.00	30.463 
06:30	20.3	20.3	20.3	77	14.3	0	1	270	0.00	30.456 
06:35	20.2	20.2	20.2	77	14.2	0	1	270	0.00	30.456 
06:40	20.0	20.0	20.0	77	14.0	0	2	270	0.00	30.456 
06:45	19.9	19.9	19.9	77	13.9	0	1	270	0.00	30.450 
06:50	19.7	19.7	19.7	77	13.7	0	2	270	0.00	30.450 
06:55	19.7	19.7	19.7	78	14.0	0	1	270	0.00	30.450 
07:00	19.7	19.7	19.7	78	14.0	0	1	270	0.00	30.449 
07:05	19.7	19.7	19.7	78	14.0	0	1	270	0.00	30.449 
07:10	19.7	19.7	19.7	78	14.0	0	2	270	0.00	30.449 
07:15	19.9	19.9	19.9	78	14.2	0	2	270	0.00	30.448 
07:20	20.0	20.0	20.0	78	14.3	0	2	248	0.00	30.448 
07:25	20.0	20.0	20.0	78	14.3	0	1	248	0.00	30.448 
07:30	20.2	20.2	20.2	78	14.5	0	2	248	0.00	30.461 
07:35	20.2	20.2	20.2	78	14.5	0	1	248	0.00	30.461 
07:40	20.0	20.0	20.0	77	14.0	0	1	248	0.00	30.461 
07:45	20.0	20.0	20.0	77	14.0	0	1	248	0.00	30.468 
07:50	19.9	19.9	19.9	77	13.9	0	1	248	0.00	30.468 
07:55	19.5	19.5	19.5	77	13.5	0	1	248	0.00	30.468 
08:00	19.5	19.5	19.5	77	13.5	0	1	248	0.00	30.471 
08:05	19.4	19.4	19.4	77	13.4	0	1	248	0.00	30.471 
08:10	19.2	19.2	19.2	77	13.2	0	1	248	0.00	30.471 
08:15	19.1	19.1	19.1	77	13.1	0	1	248	0.00	30.476 
08:20	19.1	19.1	19.1	77	13.1	0	2	248	0.00	30.476 
08:25	19.1	19.1	19.1	77	13.1	0	1	248	0.00	30.476 
08:30	19.1	19.1	19.1	77	13.1	0	2	248	0.00	30.475 
08:35	19.2	19.2	19.2	77	13.2	0	1	248	0.00	30.475 
08:40	19.5	19.5	19.5	76	13.2	0	1	248	0.00	30.475 
08:45	19.9	19.9	19.9	76	13.6	0	2	248	0.00	30.474 
08:50	20.3	20.3	20.3	75	13.7	0	3	248	0.00	30.474 
08:55	20.5	20.5	20.5	73	13.2	0	2	248	0.00	30.474 
09:00	20.8	20.8	20.8	73	13.5	0	2	248	0.00	30.483 
09:05	21.0	21.0	21.0	72	13.4	0	2	248	0.00	30.483 
09:10	21.3	21.3	21.3	72	13.7	1	2	248	0.00	30.483 
09:15	21.6	21.6	21.6	72	14.0	1	3	225	0.00	30.474 
09:20	21.8	21.8	21.8	71	13.9	1	3	112	0.00	30.474 
09:25	22.1	22.1	22.1	71	14.2	1	3	90	0.00	30.474 
09:30	22.2	22.2	22.2	70	13.9	1	5	68	0.00	30.471 
09:35	22.4	22.4	22.4	69	13.8	1	4	90	0.00	30.471 
09:40	22.4	22.4	22.4	69	13.8	1	4	90	0.00	30.471 
09:45	22.5	22.5	22.5	69	13.9	1	3	112	0.00	30.467 
09:50	23.0	23.0	23.0	69	14.4	1	7	90	0.00	30.467 
09:55	23.3	23.3	23.3	68	14.3	2	5	90	0.00	30.467 
10:00	23.6	23.6	23.6	68	14.6	2	5	112	0.00	30.461 
10:05	23.8	23.8	23.8	68	14.8	1	4	112	0.00	30.461 
10:10	23.9	23.9	23.9	68	14.9	2	5	112	0.00	30.461 
10:15	23.9	23.9	23.9	68	14.9	1	5	90	0.00	30.459 
10:20	24.1	24.1	24.1	68	15.1	1	4	90	0.00	30.459 
10:25	24.1	24.1	24.1	67	14.8	2	5	90	0.00	30.459 
10:30	24.1	24.1	24.1	67	14.8	2	4	68	0.00	30.462 
10:35	24.2	24.2	24.2	68	15.2	1	5	90	0.00	30.462 
10:40	24.4	24.4	24.4	68	15.4	1	4	90	0.00	30.462 
10:45	24.4	24.4	24.4	68	15.4	1	5	90	0.00	30.453 
10:50	24.4	24.4	24.4	68	15.4	1	3	90	0.00	30.453 
10:55	24.4	24.4	24.4	68	15.4	1	3	90	0.00	30.453 
11:00	24.2	24.2	24.2	67	14.8	2	5	90	0.00	30.468 
11:05	24.2	24.2	24.2	68	15.2	1	3	90	0.00	30.468 
11:10	24.4	24.4	24.4	68	15.4	0	2	90	0.00	30.468 
11:15	24.4	24.4	24.4	68	15.4	1	4	90	0.00	30.472 
11:20	24.5	24.5	24.5	68	15.5	1	4	90	0.00	30.472 
11:25	24.7	24.7	24.7	69	16.0	1	4	90	0.00	30.472 
11:30	24.7	24.7	24.7	68	15.7	1	4	112	0.00	30.465 
11:35	24.8	24.8	24.8	69	16.1	1	4	112	0.00	30.465 
11:40	25.1	25.1	25.1	69	16.4	1	3	112	0.00	30.465 
11:45	25.3	25.3	25.3	69	16.6	1	3	90	0.00	30.453 
11:50	25.4	25.4	25.4	69	16.7	1	3	90	0.00	30.453 
11:55	25.7	25.7	25.7	68	16.6	1	3	90	0.00	30.453 
12:00	26.0	26.0	26.0	68	16.9	1	3	112	0.00	30.445 
12:05	26.3	26.3	26.3	68	17.2	1	3	90	0.00	30.445 
12:10	26.6	26.6	26.6	68	17.5	1	3	90	0.00	30.445 
12:15	27.0	27.0	27.0	67	17.5	1	3	45	0.00	30.435 
12:20	27.3	27.3	27.3	68	18.2	2	5	90	0.00	30.435 
12:25	27.6	27.6	27.6	66	17.8	2	4	112	0.00	30.435 
12:30	27.8	27.8	27.8	66	17.9	1	4	112	0.00	30.429 
12:35	27.9	27.9	27.9	66	18.0	1	4	90	0.00	30.429 
12:40	27.9	27.9	27.9	66	18.0	1	4	112	0.00	30.429 
12:45	28.1	28.1	28.1	67	18.6	1	4	90	0.00	30.419 
12:50	28.1	28.1	28.1	67	18.6	2	6	90	0.00	30.419 
12:55	28.1	28.1	28.1	67	18.6	2	6	90	0.00	30.419 
13:00	28.1	28.1	28.1	67	18.6	1	3	90	0.00	30.406 
13:05	28.4	28.4	28.4	67	18.9	1	4	112	0.00	30.406 
13:10	28.5	28.5	28.5	67	19.0	1	3	112	0.00	30.406 
13:15	28.7	28.7	28.7	68	19.5	1	2	112	0.00	30.407 
13:20	29.0	29.0	29.0	68	19.8	1	3	112	0.00	30.407 
13:25	29.0	29.0	29.0	67	19.4	1	4	112	0.00	30.407 
13:30	29.1	29.1	29.1	67	19.5	1	4	112	0.00	30.389 
13:35	29.0	29.0	29.0	68	19.8	2	4	112	0.00	30.389 
13:40	29.0	29.0	29.0	68	19.8	2	6	90	0.00	30.389 
13:45	28.8	28.8	28.8	69	19.9	3	9	90	0.00	30.375 
13:50	28.8	28.8	28.8	68	19.6	1	3	90	0.00	30.375 
13:55	28.8	28.8	28.8	68	19.6	1	4	90	0.00	30.375 
14:00	28.8	28.8	28.8	69	19.9	2	5	90	0.00	30.370 
14:05	29.0	29.0	29.0	69	20.1	1	5	90	0.00	30.370 
14:10	29.3	29.3	29.3	69	20.4	1	4	90	0.00	30.370 
14:15	29.3	29.3	29.3	69	20.4	2	6	90	0.00	30.351 
14:20	29.3	29.3	29.3	69	20.4	2	5	90	0.00	30.351 
14:25	29.4	29.4	29.4	69	20.5	2	6	90	0.00	30.351 
14:30	29.3	25.0	29.3	69	20.4	4	10	112	0.00	30.340 
14:35	29.1	29.1	29.1	69	20.2	3	7	90	0.00	30.340 
14:40	29.1	29.1	29.1	69	20.2	3	7	90	0.00	30.340 
14:45	29.1	24.7	29.1	70	20.6	4	9	112	0.00	30.322 
14:50	29.3	29.3	29.3	70	20.8	3	6	90	0.00	30.322 
14:55	29.4	25.1	29.4	70	20.8	4	9	90	0.00	30.322 
15:00	29.5	29.5	29.5	70	20.9	2	5	112	0.00	30.313 
15:05	29.7	25.4	29.7	70	21.1	4	10	90	0.00	30.313 
15:10	29.7	29.7	29.7	70	21.1	2	5	90	0.00	30.313 
15:15	29.8	29.8	29.8	70	21.2	2	7	90	0.00	30.321 
15:20	29.8	29.8	29.8	71	21.6	3	11	90	0.00	30.321 
15:25	30.0	30.0	30.0	71	21.8	1	3	90	0.00	30.321 
15:30	30.1	30.1	30.1	71	21.9	1	3	90	0.00	30.324 
15:35	30.1	30.1	30.1	70	21.5	2	7	112	0.00	30.324 
15:40	30.1	30.1	30.1	71	21.9	1	4	112	0.00	30.324 
15:45	30.1	30.1	30.1	71	21.9	1	5	112	0.00	30.324 
15:50	30.1	30.1	30.1	71	21.9	3	5	112	0.00	30.324 
15:55	30.1	30.1	30.1	71	21.9	2	5	90	0.00	30.324 
16:00	30.1	30.1	30.1	71	21.9	3	6	90	0.00	30.310 
16:05	30.1	30.1	30.1	71	21.9	3	5	90	0.00	30.310 
16:10	30.3	30.3	30.3	71	22.0	3	6	90	0.00	30.310 
16:15	30.4	30.4	30.4	72	22.5	2	6	90	0.00	30.306 
16:20	30.6	30.6	30.6	71	22.3	3	7	90	0.00	30.306 
16:25	30.7	30.7	30.7	72	22.8	3	5	90	0.00	30.306 
16:30	30.6	26.5	30.6	72	22.7	4	9	90	0.00	30.303 
16:35	30.4	30.4	30.4	72	22.5	3	7	90	0.00	30.303 
16:40	30.4	26.2	30.4	72	22.5	4	7	90	0.00	30.303 
16:45	30.4	30.4	30.4	72	22.5	3	7	112	0.00	30.287 
16:50	30.4	26.2	30.4	73	22.8	4	7	90	0.00	30.287 
16:55	30.4	30.4	30.4	73	22.8	3	9	112	0.00	30.287 
17:00	30.4	30.4	30.4	72	22.5	3	6	90	0.00	30.300 
17:05	30.4	30.4	30.4	72	22.5	3	7	112	0.00	30.300 
17:10	30.4	30.4	30.4	72	22.5	3	7	112	0.00	30.300 
17:15	30.4	30.4	30.4	72	22.5	3	9	112	0.00	30.292 
17:20	30.4	30.4	30.4	72	22.5	3	9	90	0.00	30.292 
17:25	30.4	25.2	30.4	72	22.5	5	10	90	0.00	30.292 
17:30	30.4	25.2	30.4	72	22.5	5	10	90	0.00	30.258 
17:35	30.6	26.5	30.6	72	22.7	4	9	90	0.00	30.258 
17:40	30.6	25.4	30.6	73	23.0	5	9	90	0.00	30.258 
17:45	30.4	25.2	30.4	73	22.8	5	9	90	0.00	30.264 
17:50	30.4	30.4	30.4	73	22.8	3	7	90	0.00	30.264 
17:55	30.4	30.4	30.4	73	22.8	3	9	90	0.00	30.264 
18:00	30.4	30.4	30.4	73	22.8	3	10	90	0.00	30.274 
18:05	30.4	26.2	30.4	73	22.8	4	9	90	0.00	30.274 
18:10	30.4	30.4	30.4	72	22.5	3	6	90	0.00	30.274 
18:15	30.4	26.2	30.4	71	22.1	4	11	90	0.00	30.291 
18:20	30.4	26.2	30.4	71	22.1	4	9	90	0.00	30.291 
18:25	30.6	30.6	30.6	71	22.3	3	6	90	0.00	30.291 
18:30	30.6	30.6	30.6	71	22.3	2	6	90	0.00	30.308 
18:35	30.6	30.6	30.6	71	22.3	3	5	90	0.00	30.308 
18:40	30.6	30.6	30.6	72	22.7	2	5	90	0.00	30.308 
18:45	30.6	30.6	30.6	73	23.0	3	6	90	0.00	30.302 
18:50	30.3	26.1	30.3	75	23.3	4	11	90	0.00	30.302 
18:55	30.0	25.8	30.0	77	23.7	4	9	90	0.00	30.302 
19:00	29.8	29.8	29.8	79	24.1	3	6	90	0.00	30.305 
19:05	29.7	29.7	29.7	81	24.6	2	5	90	0.00	30.305 
19:10	29.7	29.7	29.7	81	24.6	1	5	112	0.00	30.305 
19:15	29.7	29.7	29.7	82	24.9	1	4	90	0.00	30.317 
19:20	29.5	29.5	29.5	83	25.0	3	8	90	0.00	30.317 
19:25	29.4	29.4	29.4	84	25.2	3	7	90	0.00	30.317 
19:30	29.3	29.3	29.3	85	25.4	2	5	68	0.00	30.302 
19:35	29.3	29.3	29.3	87	25.9	3	6	90	0.00	30.302 
19:40	29.1	24.7	29.1	87	25.7	4	7	90	0.00	30.302 
19:45	29.1	24.7	29.1	88	26.0	4	10	90	0.00	30.279 
19:50	29.1	29.1	29.1	88	26.0	3	6	112	0.00	30.279 
19:55	29.1	24.7	29.1	89	26.3	4	9	90	0.00	30.279 
20:00	29.1	29.1	29.1	89	26.3	3	7	90	0.00	30.260 
20:05	29.1	29.1	29.1	89	26.3	3	7	112	0.00	30.260 
20:10	29.3	29.3	29.3	89	26.5	2	6	90	0.00	30.260 
20:15	29.3	29.3	29.3	90	26.7	2	7	90	0.00	30.257 
20:20	29.3	29.3	29.3	90	26.7	2	5	112	0.00	30.257 
20:25	29.4	29.4	29.4	90	26.8	2	7	90	0.00	30.257 
20:30	29.4	29.4	29.4	90	26.8	0	3	90	0.00	30.265 
20:35	29.5	29.5	29.5	89	26.7	2	7	90	0.00	30.265 
20:40	29.7	29.7	29.7	89	26.9	3	7	90	0.00	30.265 
20:45	29.8	29.8	29.8	89	27.0	3	7	112	0.00	30.240 
20:50	29.8	29.8	29.8	88	26.7	2	7	112	0.00	30.240 
20:55	30.0	30.0	30.0	88	26.9	2	5	112	0.00	30.240 
21:00	30.0	30.0	30.0	88	26.9	2	4	90	0.00	30.235 
21:05	30.3	30.3	30.3	89	27.5	2	4	90	0.00	30.235 
21:10	30.3	30.3	30.3	89	27.5	3	6	90	0.00	30.235 
21:15	30.4	30.4	30.4	89	27.6	2	9	90	0.00	30.206 
21:20	30.4	30.4	30.4	89	27.6	2	5	112	0.00	30.206 
21:25	30.6	30.6	30.6	89	27.8	3	9	90	0.00	30.206 
21:30	30.6	30.6	30.6	89	27.8	2	6	90	0.00	30.204 
21:35	30.6	30.6	30.6	89	27.8	2	4	68	0.00	30.204 
21:40	30.7	30.7	30.7	89	27.8	2	5	90	0.00	30.204 
21:45	30.7	30.7	30.7	89	27.8	2	6	90	0.00	30.176 
21:50	30.9	30.9	30.9	89	28.0	2	5	90	0.00	30.176 
21:55	30.9	30.9	30.9	89	28.0	3	7	90	0.00	30.176 
22:00	31.0	31.0	31.0	89	28.1	2	5	90	0.00	30.169 
22:05	31.2	31.2	31.2	89	28.3	2	5	112	0.00	30.169 
22:10	31.2	31.2	31.2	89	28.3	2	6	90	0.00	30.169 
22:15	31.3	31.3	31.3	89	28.4	2	6	90	0.00	30.159 
22:20	31.5	31.5	31.5	89	28.6	2	6	112	0.00	30.159 
22:25	31.6	31.6	31.6	89	28.7	2	6	90	0.00	30.159 
22:30	31.8	31.8	31.8	89	28.9	2	5	90	0.00	30.141 
22:35	31.9	31.9	31.9	89	29.0	2	6	90	0.00	30.141 
22:40	31.9	31.9	31.9	89	29.0	2	8	90	0.00	30.141 
22:45	31.9	31.9	31.9	89	29.0	2	6	90	0.00	30.134 
22:50	32.1	32.1	32.1	89	29.2	2	6	112	0.00	30.134 
22:55	32.1	32.1	32.1	89	29.2	2	6	112	0.00	30.134 
23:00	32.2	32.2	32.2	89	29.3	2	5	112	0.00	30.127 
23:05	32.2	32.2	32.2	89	29.3	2	6	112	0.00	30.127 
23:10	32.4	32.4	32.4	89	29.5	2	5	112	0.00	30.127 
23:15	32.4	32.4	32.4	89	29.5	2	5	90	0.00	30.123 
23:20	32.5	32.5	32.5	89	29.6	1	4	90	0.00	30.123 
23:25	32.5	32.5	32.5	89	29.6	1	5	90	0.00	30.123 
23:30	32.7	32.7	32.7	89	29.8	1	3	112	0.00	30.124 
23:35	32.7	32.7	32.7	90	30.1	0	3	112	0.00	30.124 
23:40	32.8	32.8	32.8	90	30.2	1	3	112	0.00	30.124 
23:45	32.8	32.8	32.8	90	30.2	1	5	112	0.00	30.135 
23:50	32.8	32.8	32.8	90	30.2	2	5	112	0.00	30.135 
23:55	32.9	32.9	32.9	90	30.3	2	5	135	0.00	30.135 

CoCoRaHS
IN-AL-39
A2 Web Hosting
Creative Commons License
GoDaddy
search engine by freefind advanced

loaded 2018-11-17 00:06:58 • last modified 2010-11-18 10:43:29
Privacy PolicyDisclaimer
• wx.awcolley.com is powered by PmWiki v.2002016 •
• all content (unless otherwise noted) © 2018 A W Colley